sensor_id;sensor_type;location;lat;lon;timestamp;pressure;altitude;pressure_sealevel;temperature;humidity
62980;BME280;49075;53.988;27.678;2022-08-21T00:03:01;986.9;;;16.7;72.1
62980;BME280;49075;53.988;27.678;2022-08-21T00:08:34;987;;;16.7;72.1
62980;BME280;49075;53.988;27.678;2022-08-21T00:13:08;987;;;16.7;72
62980;BME280;49075;53.988;27.678;2022-08-21T00:18:22;987.1;;;16.7;71.8
62980;BME280;49075;53.988;27.678;2022-08-21T00:23:12;987;;;16.7;71.9
62980;BME280;49075;53.988;27.678;2022-08-21T00:28:08;987;;;16.6;71.9
62980;BME280;49075;53.988;27.678;2022-08-21T00:33:18;987;;;16.6;72.1
62980;BME280;49075;53.988;27.678;2022-08-21T00:38:03;987;;;16.6;71.8
62980;BME280;49075;53.988;27.678;2022-08-21T00:43:34;987;;;16.6;71.9
62980;BME280;49075;53.988;27.678;2022-08-21T00:48:12;987;;;16.6;71.8
62980;BME280;49075;53.988;27.678;2022-08-21T00:53:35;986.9;;;16.5;72.1
62980;BME280;49075;53.988;27.678;2022-08-21T00:58:08;986.8;;;16.4;72.1
62980;BME280;49075;53.988;27.678;2022-08-21T01:03:07;986.8;;;16.4;72.3
62980;BME280;49075;53.988;27.678;2022-08-21T01:08:13;986.8;;;16.5;72
62980;BME280;49075;53.988;27.678;2022-08-21T01:13:12;986.8;;;16.4;72.1
62980;BME280;49075;53.988;27.678;2022-08-21T01:18:34;986.7;;;16.4;72
62980;BME280;49075;53.988;27.678;2022-08-21T01:23:08;986.8;;;16.3;72.3
62980;BME280;49075;53.988;27.678;2022-08-21T01:28:35;986.8;;;16.4;72.2
62980;BME280;49075;53.988;27.678;2022-08-21T01:33:08;986.7;;;16.3;72.1
62980;BME280;49075;53.988;27.678;2022-08-21T01:38:16;986.8;;;16.3;72.2
62980;BME280;49075;53.988;27.678;2022-08-21T01:43:08;986.8;;;16.2;72.3
62980;BME280;49075;53.988;27.678;2022-08-21T01:48:10;986.8;;;16.2;72.3
62980;BME280;49075;53.988;27.678;2022-08-21T01:53:16;986.8;;;16.2;72.3
62980;BME280;49075;53.988;27.678;2022-08-21T01:58:22;986.8;;;16.2;72.4
62980;BME280;49075;53.988;27.678;2022-08-21T02:03:36;986.7;;;16.2;72.3
62980;BME280;49075;53.988;27.678;2022-08-21T02:08:00;986.8;;;16.2;72.3
62980;BME280;49075;53.988;27.678;2022-08-21T02:13:36;986.8;;;16.2;72.3
62980;BME280;49075;53.988;27.678;2022-08-21T02:18:10;986.8;;;16.2;72.5
62980;BME280;49075;53.988;27.678;2022-08-21T02:23:02;986.8;;;16.1;72.5
62980;BME280;49075;53.988;27.678;2022-08-21T02:28:38;986.8;;;16.1;72.7
62980;BME280;49075;53.988;27.678;2022-08-21T02:33:00;986.7;;;16.1;72.7
62980;BME280;49075;53.988;27.678;2022-08-21T02:38:39;986.7;;;16;72.9
62980;BME280;49075;53.988;27.678;2022-08-21T02:43:38;986.7;;;16;72.9
62980;BME280;49075;53.988;27.678;2022-08-21T02:48:15;986.7;;;15.9;73.2
62980;BME280;49075;53.988;27.678;2022-08-21T02:53:38;986.8;;;15.9;73
62980;BME280;49075;53.988;27.678;2022-08-21T02:58:13;986.8;;;16;73.2
62980;BME280;49075;53.988;27.678;2022-08-21T03:03:06;986.9;;;15.9;73.1
62980;BME280;49075;53.988;27.678;2022-08-21T03:08:14;986.9;;;16;73.2
62980;BME280;49075;53.988;27.678;2022-08-21T03:13:02;987;;;16.1;73
62980;BME280;49075;53.988;27.678;2022-08-21T03:18:38;987;;;16.1;73
62980;BME280;49075;53.988;27.678;2022-08-21T03:23:10;987;;;16;73.1
62980;BME280;49075;53.988;27.678;2022-08-21T03:28:19;987;;;15.9;73.5
62980;BME280;49075;53.988;27.678;2022-08-21T03:33:08;987.1;;;16;73.2
62980;BME280;49075;53.988;27.678;2022-08-21T03:38:36;987.1;;;16;73.3
62980;BME280;49075;53.988;27.678;2022-08-21T03:43:38;987.1;;;16;73.1
62980;BME280;49075;53.988;27.678;2022-08-21T03:48:20;987;;;16.1;73.1
62980;BME280;49075;53.988;27.678;2022-08-21T03:53:08;987.1;;;16.1;72.8
62980;BME280;49075;53.988;27.678;2022-08-21T03:58:22;987.1;;;16.2;72.8
62980;BME280;49075;53.988;27.678;2022-08-21T04:03:36;987.1;;;16.3;72.5
62980;BME280;49075;53.988;27.678;2022-08-21T04:08:10;987;;;16.2;72.5
62980;BME280;49075;53.988;27.678;2022-08-21T04:13:10;987.1;;;16.3;72.4
62980;BME280;49075;53.988;27.678;2022-08-21T04:18:38;987.1;;;16.3;72.3
62980;BME280;49075;53.988;27.678;2022-08-21T04:23:10;987.1;;;16.3;72.2
62980;BME280;49075;53.988;27.678;2022-08-21T04:28:20;987.1;;;16.3;72.1
62980;BME280;49075;53.988;27.678;2022-08-21T04:33:22;987.1;;;16.4;72
62980;BME280;49075;53.988;27.678;2022-08-21T04:38:38;987.2;;;16.5;71.7
62980;BME280;49075;53.988;27.678;2022-08-21T04:43:38;987.2;;;16.5;71.5
62980;BME280;49075;53.988;27.678;2022-08-21T04:48:38;987.2;;;16.5;71.4
62980;BME280;49075;53.988;27.678;2022-08-21T04:53:12;987.2;;;16.6;71.4
62980;BME280;49075;53.988;27.678;2022-08-21T04:58:08;987.2;;;16.6;71.3
62980;BME280;49075;53.988;27.678;2022-08-21T05:03:00;987.2;;;16.7;71.2
62980;BME280;49075;53.988;27.678;2022-08-21T05:08:38;987.2;;;16.9;70.7
62980;BME280;49075;53.988;27.678;2022-08-21T05:13:10;987.1;;;16.9;70.4
62980;BME280;49075;53.988;27.678;2022-08-21T05:18:38;987.1;;;17;70.2
62980;BME280;49075;53.988;27.678;2022-08-21T05:23:10;987.2;;;17.1;70.2
62980;BME280;49075;53.988;27.678;2022-08-21T05:28:22;987.2;;;17.1;69.9
62980;BME280;49075;53.988;27.678;2022-08-21T05:33:00;987.2;;;17.2;69.8
62980;BME280;49075;53.988;27.678;2022-08-21T05:38:11;987.1;;;17.1;69.8
62980;BME280;49075;53.988;27.678;2022-08-21T05:43:02;987.1;;;17;69.9
62980;BME280;49075;53.988;27.678;2022-08-21T05:48:38;987.1;;;16.9;69.9
62980;BME280;49075;53.988;27.678;2022-08-21T05:53:10;987;;;16.8;70.2
62980;BME280;49075;53.988;27.678;2022-08-21T05:58:19;987;;;16.8;70.2
62980;BME280;49075;53.988;27.678;2022-08-21T06:03:00;987;;;16.9;70.2
62980;BME280;49075;53.988;27.678;2022-08-21T06:08:12;987;;;16.9;70.2
62980;BME280;49075;53.988;27.678;2022-08-21T06:13:12;986.9;;;17;69.9
62980;BME280;49075;53.988;27.678;2022-08-21T06:18:12;986.9;;;17;69.7
62980;BME280;49075;53.988;27.678;2022-08-21T06:23:08;986.9;;;17.1;69.6
62980;BME280;49075;53.988;27.678;2022-08-21T06:28:03;986.8;;;17.3;69.1
62980;BME280;49075;53.988;27.678;2022-08-21T06:33:38;986.7;;;17.6;68.6
62980;BME280;49075;53.988;27.678;2022-08-21T06:38:38;986.7;;;18.1;67.7
62980;BME280;49075;53.988;27.678;2022-08-21T06:43:11;986.6;;;18.8;66.1
62980;BME280;49075;53.988;27.678;2022-08-21T06:48:38;986.6;;;19.7;63.3
62980;BME280;49075;53.988;27.678;2022-08-21T06:53:38;986.5;;;20.8;60.8
62980;BME280;49075;53.988;27.678;2022-08-21T06:58:10;986.5;;;22.2;57.2
62980;BME280;49075;53.988;27.678;2022-08-21T07:03:00;986.4;;;23.4;54.7
62980;BME280;49075;53.988;27.678;2022-08-21T07:08:38;986.4;;;24.4;52
62980;BME280;49075;53.988;27.678;2022-08-21T07:13:38;986.4;;;24.7;50.5
62980;BME280;49075;53.988;27.678;2022-08-21T07:18:08;986.3;;;25;48.6
62980;BME280;49075;53.988;27.678;2022-08-21T07:23:12;986.2;;;25.5;48.5
62980;BME280;49075;53.988;27.678;2022-08-21T07:28:02;986.1;;;26.2;46.3
62980;BME280;49075;53.988;27.678;2022-08-21T07:33:14;986.1;;;26.6;45.8
62980;BME280;49075;53.988;27.678;2022-08-21T07:38:02;986.1;;;26.9;44.3
62980;BME280;49075;53.988;27.678;2022-08-21T07:43:22;986.1;;;27.4;43.9
62980;BME280;49075;53.988;27.678;2022-08-21T07:48:38;986;;;28.3;41.8
62980;BME280;49075;53.988;27.678;2022-08-21T07:53:02;986;;;28.4;41.6
62980;BME280;49075;53.988;27.678;2022-08-21T07:58:38;986;;;28;40.9
62980;BME280;49075;53.988;27.678;2022-08-21T08:03:00;986;;;27.4;41.6
62980;BME280;49075;53.988;27.678;2022-08-21T08:08:02;986;;;27;41.9
62980;BME280;49075;53.988;27.678;2022-08-21T08:13:40;986;;;27.1;42
62980;BME280;49075;53.988;27.678;2022-08-21T08:18:10;985.9;;;27.6;41.2
62980;BME280;49075;53.988;27.678;2022-08-21T08:23:02;985.9;;;28.7;40.2
62980;BME280;49075;53.988;27.678;2022-08-21T08:28:38;985.9;;;29.4;38.2
62980;BME280;49075;53.988;27.678;2022-08-21T08:33:08;985.9;;;29.7;38.3
62980;BME280;49075;53.988;27.678;2022-08-21T08:38:10;985.9;;;29.2;38.4
62980;BME280;49075;53.988;27.678;2022-08-21T08:43:38;985.8;;;27.9;40.3
62980;BME280;49075;53.988;27.678;2022-08-21T08:48:41;985.7;;;28;40.3
62980;BME280;49075;53.988;27.678;2022-08-21T08:53:12;985.6;;;29.4;38.4
62980;BME280;49075;53.988;27.678;2022-08-21T08:58:27;985.5;;;29.7;37.9
62980;BME280;49075;53.988;27.678;2022-08-21T09:03:02;985.6;;;28.9;39
62980;BME280;49075;53.988;27.678;2022-08-21T09:08:39;985.6;;;27.6;40.5
62980;BME280;49075;53.988;27.678;2022-08-21T09:18:50;985.5;;;26.6;42.3
62980;BME280;49075;53.988;27.678;2022-08-21T09:23:17;985.4;;;25.9;43.1
62980;BME280;49075;53.988;27.678;2022-08-21T09:28:16;985.4;;;25.5;43.8
62980;BME280;49075;53.988;27.678;2022-08-21T09:33:36;985.3;;;25.9;43.2
62980;BME280;49075;53.988;27.678;2022-08-21T09:38:38;985.3;;;26.1;42.7
62980;BME280;49075;53.988;27.678;2022-08-21T09:43:20;985.3;;;25.4;44.1
62980;BME280;49075;53.988;27.678;2022-08-21T09:48:10;985.2;;;25.4;44.1
62980;BME280;49075;53.988;27.678;2022-08-21T09:53:39;985.2;;;25.6;43.9
62980;BME280;49075;53.988;27.678;2022-08-21T09:58:39;985.1;;;25.7;43.9
62980;BME280;49075;53.988;27.678;2022-08-21T10:03:17;985.1;;;26.3;43
62980;BME280;49075;53.988;27.678;2022-08-21T10:08:19;985.1;;;27.6;40.6
62980;BME280;49075;53.988;27.678;2022-08-21T10:13:24;985.1;;;28.9;39.4
62980;BME280;49075;53.988;27.678;2022-08-21T10:18:39;985;;;29.6;37.5
62980;BME280;49075;53.988;27.678;2022-08-21T10:23:42;984.9;;;30.8;35.9
62980;BME280;49075;53.988;27.678;2022-08-21T10:28:40;984.8;;;31.9;34.2
62980;BME280;49075;53.988;27.678;2022-08-21T10:33:38;984.8;;;32.5;33.6
62980;BME280;49075;53.988;27.678;2022-08-21T10:38:24;984.8;;;31.5;33.9
62980;BME280;49075;53.988;27.678;2022-08-21T10:43:16;984.8;;;30.2;35.9
62980;BME280;49075;53.988;27.678;2022-08-21T10:48:40;984.8;;;29.3;36.8
62980;BME280;49075;53.988;27.678;2022-08-21T10:58:33;984.8;;;28.6;37.6
62980;BME280;49075;53.988;27.678;2022-08-21T11:03:20;984.7;;;29;37.2
62980;BME280;49075;53.988;27.678;2022-08-21T11:08:12;984.7;;;28.8;36.8
62980;BME280;49075;53.988;27.678;2022-08-21T11:13:05;984.7;;;28.8;36.9
62980;BME280;49075;53.988;27.678;2022-08-21T11:18:04;984.7;;;28.3;37.3
62980;BME280;49075;53.988;27.678;2022-08-21T11:23:16;984.6;;;29;36.9
62980;BME280;49075;53.988;27.678;2022-08-21T11:28:38;984.6;;;28.5;37.5
62980;BME280;49075;53.988;27.678;2022-08-21T11:33:14;984.6;;;27.9;38.4
62980;BME280;49075;53.988;27.678;2022-08-21T11:38:40;984.7;;;28;38.3
62980;BME280;49075;53.988;27.678;2022-08-21T11:43:40;984.7;;;27.5;38.9
62980;BME280;49075;53.988;27.678;2022-08-21T11:48:44;984.7;;;27.5;38.9
62980;BME280;49075;53.988;27.678;2022-08-21T11:53:13;984.8;;;26.6;40.5
62980;BME280;49075;53.988;27.678;2022-08-21T11:58:12;984.8;;;26.1;41.1
62980;BME280;49075;53.988;27.678;2022-08-21T12:03:24;984.7;;;25.9;41.5
62980;BME280;49075;53.988;27.678;2022-08-21T12:08:38;984.7;;;25.7;41.9
62980;BME280;49075;53.988;27.678;2022-08-21T12:13:37;984.6;;;25.8;41.4
62980;BME280;49075;53.988;27.678;2022-08-21T12:18:36;984.6;;;26;40.8
62980;BME280;49075;53.988;27.678;2022-08-21T12:24:43;984.6;;;25.9;41
62980;BME280;49075;53.988;27.678;2022-08-21T12:28:36;984.6;;;25.6;41.9
62980;BME280;49075;53.988;27.678;2022-08-21T12:33:19;984.6;;;25.5;42.1
62980;BME280;49075;53.988;27.678;2022-08-21T12:38:23;984.6;;;25.3;42.5
62980;BME280;49075;53.988;27.678;2022-08-21T12:43:13;984.6;;;25.5;41.5
62980;BME280;49075;53.988;27.678;2022-08-21T12:48:45;984.7;;;25.8;41.9
62980;BME280;49075;53.988;27.678;2022-08-21T12:53:43;984.7;;;25.6;42.5
62980;BME280;49075;53.988;27.678;2022-08-21T12:58:04;984.7;;;25.4;42.5
62980;BME280;49075;53.988;27.678;2022-08-21T13:03:10;984.7;;;25.1;42.7
62980;BME280;49075;53.988;27.678;2022-08-21T13:08:03;984.7;;;25;42
62980;BME280;49075;53.988;27.678;2022-08-21T13:13:10;984.7;;;25;42.1
62980;BME280;49075;53.988;27.678;2022-08-21T13:18:19;984.7;;;25;42.5
62980;BME280;49075;53.988;27.678;2022-08-21T13:23:02;984.7;;;24.9;42.6
62980;BME280;49075;53.988;27.678;2022-08-21T13:28:38;984.7;;;24.9;43.4
62980;BME280;49075;53.988;27.678;2022-08-21T13:33:34;984.8;;;24.6;44.8
62980;BME280;49075;53.988;27.678;2022-08-21T13:38:39;984.8;;;24.4;44.3
62980;BME280;49075;53.988;27.678;2022-08-21T13:43:12;984.8;;;24.4;45.4
62980;BME280;49075;53.988;27.678;2022-08-21T13:48:38;984.8;;;24.3;46.4
62980;BME280;49075;53.988;27.678;2022-08-21T13:53:46;984.8;;;24.2;46.7
62980;BME280;49075;53.988;27.678;2022-08-21T13:58:42;984.9;;;24.2;46.9
62980;BME280;49075;53.988;27.678;2022-08-21T14:03:08;984.9;;;24.2;47.1
62980;BME280;49075;53.988;27.678;2022-08-21T14:08:11;984.9;;;24.3;47.1
62980;BME280;49075;53.988;27.678;2022-08-21T14:13:40;984.8;;;24.2;47.1
62980;BME280;49075;53.988;27.678;2022-08-21T14:18:18;984.8;;;24.2;47.2
62980;BME280;49075;53.988;27.678;2022-08-21T14:23:38;984.8;;;24.2;47.1
62980;BME280;49075;53.988;27.678;2022-08-21T14:28:39;984.8;;;24;47
62980;BME280;49075;53.988;27.678;2022-08-21T14:33:11;984.8;;;23.9;46.2
62980;BME280;49075;53.988;27.678;2022-08-21T14:38:02;984.9;;;23.6;45.7
62980;BME280;49075;53.988;27.678;2022-08-21T14:43:12;984.8;;;23.6;45.7
62980;BME280;49075;53.988;27.678;2022-08-21T14:48:40;984.8;;;23.7;45.5
62980;BME280;49075;53.988;27.678;2022-08-21T14:53:16;984.8;;;23.6;45.4
62980;BME280;49075;53.988;27.678;2022-08-21T14:58:44;984.8;;;23.5;45.5
62980;BME280;49075;53.988;27.678;2022-08-21T15:03:00;984.8;;;23.4;45.8
62980;BME280;49075;53.988;27.678;2022-08-21T15:08:40;984.8;;;23.2;45.6
62980;BME280;49075;53.988;27.678;2022-08-21T15:13:10;984.8;;;23.2;45.8
62980;BME280;49075;53.988;27.678;2022-08-21T15:18:02;984.8;;;23.2;45.6
62980;BME280;49075;53.988;27.678;2022-08-21T15:23:10;984.8;;;23.2;45.8
62980;BME280;49075;53.988;27.678;2022-08-21T15:28:03;984.9;;;23.1;46
62980;BME280;49075;53.988;27.678;2022-08-21T15:33:08;984.8;;;23.1;45.9
62980;BME280;49075;53.988;27.678;2022-08-21T15:38:22;984.8;;;23;45.9
62980;BME280;49075;53.988;27.678;2022-08-21T15:43:24;984.9;;;23;46.3
62980;BME280;49075;53.988;27.678;2022-08-21T15:48:10;984.9;;;23;46.5
62980;BME280;49075;53.988;27.678;2022-08-21T15:53:20;984.9;;;22.9;46.8
62980;BME280;49075;53.988;27.678;2022-08-21T15:58:42;984.9;;;22.9;46.9
62980;BME280;49075;53.988;27.678;2022-08-21T16:03:45;985;;;22.9;47.2
62980;BME280;49075;53.988;27.678;2022-08-21T16:08:44;984.9;;;22.8;47.5
62980;BME280;49075;53.988;27.678;2022-08-21T16:13:12;984.9;;;22.7;47.7
62980;BME280;49075;53.988;27.678;2022-08-21T16:18:02;984.9;;;22.7;47.9
62980;BME280;49075;53.988;27.678;2022-08-21T16:23:02;984.9;;;22.7;48
62980;BME280;49075;53.988;27.678;2022-08-21T16:28:42;984.9;;;22.6;48.2
62980;BME280;49075;53.988;27.678;2022-08-21T16:33:06;984.9;;;22.6;48.8
62980;BME280;49075;53.988;27.678;2022-08-21T16:38:40;985;;;22.4;49.6
62980;BME280;49075;53.988;27.678;2022-08-21T16:43:02;984.9;;;22.4;49.9
62980;BME280;49075;53.988;27.678;2022-08-21T16:48:12;985;;;22.3;50.2
62980;BME280;49075;53.988;27.678;2022-08-21T16:53:02;985;;;22.3;50.8
62980;BME280;49075;53.988;27.678;2022-08-21T16:58:03;985;;;22.2;51.1
62980;BME280;49075;53.988;27.678;2022-08-21T17:03:39;985.1;;;22.2;51.3
62980;BME280;49075;53.988;27.678;2022-08-21T17:08:12;985.1;;;21.9;52.2
62980;BME280;49075;53.988;27.678;2022-08-21T17:13:02;985.1;;;21.8;52.7
62980;BME280;49075;53.988;27.678;2022-08-21T17:18:12;985.1;;;21.7;52.6
62980;BME280;49075;53.988;27.678;2022-08-21T17:23:40;985.2;;;21.8;52.7
62980;BME280;49075;53.988;27.678;2022-08-21T17:28:28;985.3;;;21.7;52.9
62980;BME280;49075;53.988;27.678;2022-08-21T17:33:15;985.3;;;21.6;53.3
62980;BME280;49075;53.988;27.678;2022-08-21T17:38:18;985.4;;;21.3;54.2
62980;BME280;49075;53.988;27.678;2022-08-21T17:43:40;985.4;;;21.2;55
62980;BME280;49075;53.988;27.678;2022-08-21T17:48:02;985.4;;;20.8;58
62980;BME280;49075;53.988;27.678;2022-08-21T17:53:40;985.4;;;20.5;59.5
62980;BME280;49075;53.988;27.678;2022-08-21T17:58:12;985.4;;;20.4;59.6
62980;BME280;49075;53.988;27.678;2022-08-21T18:03:36;985.4;;;20.5;59.9
62980;BME280;49075;53.988;27.678;2022-08-21T18:08:08;985.4;;;20.5;60.8
62980;BME280;49075;53.988;27.678;2022-08-21T18:13:11;985.4;;;20.4;61.2
62980;BME280;49075;53.988;27.678;2022-08-21T18:18:45;985.5;;;20.2;61.5
62980;BME280;49075;53.988;27.678;2022-08-21T18:23:02;985.4;;;20.3;61.2
62980;BME280;49075;53.988;27.678;2022-08-21T18:28:42;985.5;;;20.3;60.5
62980;BME280;49075;53.988;27.678;2022-08-21T18:33:08;985.5;;;20.4;60.7
62980;BME280;49075;53.988;27.678;2022-08-21T18:38:10;985.5;;;20.3;60.5
62980;BME280;49075;53.988;27.678;2022-08-21T18:43:10;985.5;;;20.3;60.9
62980;BME280;49075;53.988;27.678;2022-08-21T18:48:42;985.6;;;20;60.9
62980;BME280;49075;53.988;27.678;2022-08-21T18:53:13;985.6;;;19.9;60.9
62980;BME280;49075;53.988;27.678;2022-08-21T18:58:43;985.6;;;19.8;60.7
62980;BME280;49075;53.988;27.678;2022-08-21T19:03:13;985.6;;;19.7;60.5
62980;BME280;49075;53.988;27.678;2022-08-21T19:08:42;985.6;;;19.7;60.3
62980;BME280;49075;53.988;27.678;2022-08-21T19:13:44;985.6;;;19.6;60.2
62980;BME280;49075;53.988;27.678;2022-08-21T19:18:44;985.6;;;19.6;60.1
62980;BME280;49075;53.988;27.678;2022-08-21T19:23:11;985.6;;;19.5;60.3
62980;BME280;49075;53.988;27.678;2022-08-21T19:28:12;985.6;;;19.4;60.4
62980;BME280;49075;53.988;27.678;2022-08-21T19:33:06;985.6;;;19.4;60.2
62980;BME280;49075;53.988;27.678;2022-08-21T19:38:02;985.7;;;19.3;60.3
62980;BME280;49075;53.988;27.678;2022-08-21T19:43:44;985.7;;;19.3;60.4
62980;BME280;49075;53.988;27.678;2022-08-21T19:48:42;985.7;;;19.2;60.7
62980;BME280;49075;53.988;27.678;2022-08-21T19:53:18;985.7;;;19.1;60.7
62980;BME280;49075;53.988;27.678;2022-08-21T19:58:02;985.7;;;19.1;60.8
62980;BME280;49075;53.988;27.678;2022-08-21T20:03:00;985.7;;;19.2;60.5
62980;BME280;49075;53.988;27.678;2022-08-21T20:08:02;985.7;;;19;61.1
62980;BME280;49075;53.988;27.678;2022-08-21T20:13:12;985.7;;;19;61.1
62980;BME280;49075;53.988;27.678;2022-08-21T20:18:10;985.7;;;18.9;61.4
62980;BME280;49075;53.988;27.678;2022-08-21T20:23:10;985.8;;;18.9;61.5
62980;BME280;49075;53.988;27.678;2022-08-21T20:28:45;985.8;;;18.9;61.7
62980;BME280;49075;53.988;27.678;2022-08-21T20:32:58;985.7;;;18.9;61.7
62980;BME280;49075;53.988;27.678;2022-08-21T20:38:02;985.7;;;18.8;62.2
62980;BME280;49075;53.988;27.678;2022-08-21T20:43:42;985.8;;;18.8;62.8
62980;BME280;49075;53.988;27.678;2022-08-21T20:48:42;985.8;;;18.6;64
62980;BME280;49075;53.988;27.678;2022-08-21T20:53:30;985.8;;;18.4;64.1
62980;BME280;49075;53.988;27.678;2022-08-21T20:58:46;985.8;;;18.2;65
62980;BME280;49075;53.988;27.678;2022-08-21T21:03:00;985.9;;;18.2;64.5
62980;BME280;49075;53.988;27.678;2022-08-21T21:08:22;985.9;;;18.1;65.1
62980;BME280;49075;53.988;27.678;2022-08-21T21:13:13;985.9;;;18.2;64.7
62980;BME280;49075;53.988;27.678;2022-08-21T21:18:44;985.9;;;18.1;65.6
62980;BME280;49075;53.988;27.678;2022-08-21T21:23:15;985.9;;;18.1;65.1
62980;BME280;49075;53.988;27.678;2022-08-21T21:28:49;986;;;18;65.6
62980;BME280;49075;53.988;27.678;2022-08-21T21:33:40;986;;;18;65.4
62980;BME280;49075;53.988;27.678;2022-08-21T21:38:42;986;;;17.9;65.9
62980;BME280;49075;53.988;27.678;2022-08-21T21:43:17;986;;;18;65.7
62980;BME280;49075;53.988;27.678;2022-08-21T21:48:14;986.1;;;17.9;65.8
62980;BME280;49075;53.988;27.678;2022-08-21T21:53:29;986.1;;;17.9;65.8
62980;BME280;49075;53.988;27.678;2022-08-21T22:03:37;986.1;;;17.9;65.9
62980;BME280;49075;53.988;27.678;2022-08-21T22:08:06;986.1;;;17.8;66
62980;BME280;49075;53.988;27.678;2022-08-21T22:13:14;986.2;;;17.7;66.4
62980;BME280;49075;53.988;27.678;2022-08-21T22:18:14;986.2;;;17.7;66.1
62980;BME280;49075;53.988;27.678;2022-08-21T22:23:03;986.1;;;17.6;66.3
62980;BME280;49075;53.988;27.678;2022-08-21T22:28:40;986;;;17.6;66.3
62980;BME280;49075;53.988;27.678;2022-08-21T22:33:13;986.1;;;17.5;66.8
62980;BME280;49075;53.988;27.678;2022-08-21T22:38:38;986.1;;;17.5;66.6
62980;BME280;49075;53.988;27.678;2022-08-21T22:43:15;986.1;;;17.4;66.8
62980;BME280;49075;53.988;27.678;2022-08-21T22:48:08;986.1;;;17.3;67
62980;BME280;49075;53.988;27.678;2022-08-21T22:53:23;986.1;;;17.3;67.1
62980;BME280;49075;53.988;27.678;2022-08-21T22:58:18;986.2;;;17.2;67.3
62980;BME280;49075;53.988;27.678;2022-08-21T23:04:17;986.2;;;17.2;67.2
62980;BME280;49075;53.988;27.678;2022-08-21T23:08:44;986.1;;;17.2;67.4
62980;BME280;49075;53.988;27.678;2022-08-21T23:13:20;986.2;;;17.2;67.3
62980;BME280;49075;53.988;27.678;2022-08-21T23:18:42;986.2;;;17.2;67.4
62980;BME280;49075;53.988;27.678;2022-08-21T23:23:21;986.2;;;17.1;67.5
62980;BME280;49075;53.988;27.678;2022-08-21T23:28:42;986.3;;;17;67.9
62980;BME280;49075;53.988;27.678;2022-08-21T23:34:38;986.2;;;16.9;67.9
62980;BME280;49075;53.988;27.678;2022-08-21T23:38:42;986.2;;;16.9;68
62980;BME280;49075;53.988;27.678;2022-08-21T23:43:31;986.2;;;16.9;67.9
62980;BME280;49075;53.988;27.678;2022-08-21T23:48:19;986.2;;;16.9;67.9
62980;BME280;49075;53.988;27.678;2022-08-21T23:54:16;986.2;;;17;67.7
62980;BME280;49075;53.988;27.678;2022-08-21T23:58:15;986.1;;;17;67.5
